createdAt,value
2023-03-22T00:03:59.250Z,24.03
2023-03-22T00:07:59.341Z,24.01
2023-03-22T00:11:59.567Z,24.00
2023-03-22T00:15:59.902Z,24.00
2023-03-22T00:20:00.154Z,23.99
2023-03-22T00:24:00.212Z,24.00
2023-03-22T00:28:00.431Z,23.99
2023-03-22T00:32:00.744Z,23.99
2023-03-22T00:36:00.853Z,24.00
2023-03-22T00:40:01.026Z,24.00
2023-03-22T00:44:01.247Z,23.99
2023-03-22T00:48:01.557Z,23.99
2023-03-22T00:52:01.661Z,23.97
2023-03-22T00:56:01.941Z,23.96
2023-03-22T01:00:02.121Z,23.94
2023-03-22T01:04:02.132Z,23.96
2023-03-22T01:08:05.131Z,23.94
2023-03-22T01:12:02.228Z,23.96
2023-03-22T01:16:02.064Z,23.97
2023-03-22T01:20:01.966Z,23.94
2023-03-22T01:24:02.063Z,23.94
2023-03-22T01:28:02.142Z,23.97
2023-03-22T01:32:01.831Z,23.96
2023-03-22T01:36:01.847Z,23.93
2023-03-22T01:40:01.773Z,23.94
2023-03-22T01:44:02.587Z,23.96
2023-03-22T01:48:01.904Z,23.93
2023-03-22T01:52:01.800Z,23.94
2023-03-22T01:56:01.662Z,23.93
2023-03-22T02:00:02.115Z,23.93
2023-03-22T02:04:01.700Z,23.94
2023-03-22T02:08:01.647Z,23.93
2023-03-22T02:12:01.641Z,23.94
2023-03-22T02:16:01.704Z,23.96
2023-03-22T02:20:01.467Z,23.93
2023-03-22T02:24:01.431Z,23.93
2023-03-22T02:28:01.445Z,23.91
2023-03-22T02:32:01.412Z,23.93
2023-03-22T02:36:01.334Z,23.93
2023-03-22T02:40:01.614Z,23.91
2023-03-22T02:44:01.587Z,23.91
2023-03-22T02:48:01.202Z,23.88
2023-03-22T02:52:01.167Z,23.93
2023-03-22T02:56:01.139Z,23.90
2023-03-22T03:00:01.320Z,23.90
2023-03-22T03:04:01.252Z,23.88
2023-03-22T03:08:01.171Z,23.87
2023-03-22T03:12:01.125Z,23.85
2023-03-22T03:16:01.107Z,23.85
2023-03-22T03:20:01.115Z,23.87
2023-03-22T03:24:01.060Z,23.85
2023-03-22T03:28:01.019Z,23.85
2023-03-22T03:32:01.038Z,23.87
2023-03-22T03:36:00.959Z,23.85
2023-03-22T03:40:01.088Z,23.85
2023-03-22T03:44:01.073Z,23.87
2023-03-22T03:48:01.099Z,23.84
2023-03-22T03:52:01.009Z,23.85
2023-03-22T03:56:01.030Z,23.83
2023-03-22T04:00:01.006Z,23.84
2023-03-22T04:04:01.049Z,23.84
2023-03-22T04:08:00.843Z,23.80
2023-03-22T04:12:00.813Z,23.81
2023-03-22T04:16:00.829Z,23.80
2023-03-22T04:20:00.872Z,23.81
2023-03-22T04:24:00.858Z,23.80
2023-03-22T04:28:01.114Z,23.81
2023-03-22T04:32:00.793Z,23.79
2023-03-22T04:36:02.919Z,23.81
2023-03-22T04:40:00.692Z,23.81
2023-03-22T04:44:00.632Z,23.80
2023-03-22T04:48:01.311Z,23.79
2023-03-22T04:52:00.536Z,23.79
2023-03-22T04:56:00.712Z,23.77
2023-03-22T05:00:15.176Z,23.77
2023-03-22T05:04:00.560Z,23.76
2023-03-22T05:08:00.433Z,23.74
2023-03-22T05:12:00.390Z,23.76
2023-03-22T05:16:00.456Z,23.77
2023-03-22T05:20:00.325Z,23.77
2023-03-22T05:24:00.693Z,23.73
2023-03-22T05:28:00.702Z,23.76
2023-03-22T05:32:00.692Z,23.81
2023-03-22T05:36:00.356Z,23.87
2023-03-22T05:40:00.695Z,24.03
2023-03-22T05:44:00.411Z,24.38
2023-03-22T05:48:00.637Z,24.68
2023-03-22T05:52:00.731Z,24.98
2023-03-22T05:56:00.912Z,25.28
2023-03-22T06:00:01.072Z,25.54
2023-03-22T06:04:01.286Z,25.81
2023-03-22T06:08:01.193Z,26.10
2023-03-22T06:12:01.124Z,26.35
2023-03-22T06:16:01.287Z,26.52
2023-03-22T06:20:01.240Z,26.71
2023-03-22T06:24:01.168Z,26.91
2023-03-22T06:28:01.206Z,26.99
2023-03-22T06:32:09.978Z,27.05
2023-03-22T06:36:02.648Z,29.40
2023-03-22T06:40:01.211Z,31.66
2023-03-22T06:44:01.105Z,33.45
2023-03-22T06:48:01.148Z,33.41
2023-03-22T06:52:03.178Z,31.46
2023-03-22T06:56:04.638Z,30.37
2023-03-22T07:00:06.134Z,29.90
2023-03-22T07:04:01.383Z,29.30
2023-03-22T07:08:01.010Z,28.60
2023-03-22T07:12:10.739Z,28.06
2023-03-22T07:16:01.007Z,27.66
2023-03-22T07:20:00.934Z,27.32
2023-03-22T07:24:01.089Z,27.13
2023-03-22T07:28:00.955Z,27.01
2023-03-22T07:32:01.211Z,26.91
2023-03-22T07:36:01.024Z,26.92
2023-03-22T07:40:01.367Z,26.94
2023-03-22T07:44:15.250Z,26.92
2023-03-22T07:48:02.300Z,26.94
2023-03-22T07:52:00.853Z,26.94
2023-03-22T07:56:00.824Z,26.96
2023-03-22T08:00:01.052Z,27.01
2023-03-22T08:04:00.770Z,27.02
2023-03-22T08:08:00.829Z,27.03
2023-03-22T08:12:00.681Z,27.05
2023-03-22T08:16:00.745Z,27.09
2023-03-22T08:20:00.619Z,27.10
2023-03-22T08:24:00.605Z,27.15
2023-03-22T08:28:00.654Z,27.12
2023-03-22T08:32:00.884Z,27.10
2023-03-22T08:36:01.085Z,27.08
2023-03-22T08:40:01.008Z,26.95
2023-03-22T08:44:00.887Z,26.72
2023-03-22T08:48:00.908Z,26.51
2023-03-22T08:52:00.743Z,26.31
2023-03-22T08:56:00.776Z,26.23
2023-03-22T09:00:00.687Z,26.20
2023-03-22T09:04:00.772Z,26.18
2023-03-22T09:08:06.145Z,26.11
2023-03-22T09:12:02.641Z,26.10
2023-03-22T09:16:00.608Z,26.04
2023-03-22T09:20:11.878Z,25.98
2023-03-22T09:24:01.530Z,25.93
2023-03-22T09:32:30.403Z,26.05
2023-03-22T09:36:19.146Z,26.05
2023-03-22T09:40:19.125Z,26.05
2023-03-22T09:44:22.047Z,26.04
2023-03-22T09:48:19.148Z,26.01
2023-03-22T09:52:18.981Z,26.07
2023-03-22T09:56:18.887Z,26.13
2023-03-22T10:00:19.036Z,26.17
2023-03-22T10:04:18.946Z,26.20
2023-03-22T10:08:18.868Z,26.23
2023-03-22T10:12:18.828Z,26.24
2023-03-22T10:16:18.750Z,26.26
2023-03-22T10:20:18.688Z,26.30
2023-03-22T10:24:19.720Z,26.35
2023-03-22T10:28:18.691Z,26.35
2023-03-22T10:32:18.681Z,26.40
2023-03-22T10:36:18.608Z,26.44
2023-03-22T10:40:19.334Z,26.37
2023-03-22T10:44:18.550Z,26.18
2023-03-22T10:48:19.506Z,26.05
2023-03-22T10:52:18.433Z,25.91
2023-03-22T10:56:18.381Z,25.83
2023-03-22T11:00:18.457Z,25.76
2023-03-22T11:04:18.409Z,25.62
2023-03-22T11:08:18.608Z,25.60
2023-03-22T11:12:18.803Z,25.53
2023-03-22T11:16:19.838Z,25.47
2023-03-22T11:20:18.758Z,25.50
2023-03-22T11:24:18.700Z,25.46
2023-03-22T11:28:18.923Z,25.47
2023-03-22T11:32:19.893Z,25.46
2023-03-22T11:36:18.700Z,25.47
2023-03-22T11:40:18.652Z,25.46
2023-03-22T11:44:18.553Z,25.44
2023-03-22T11:48:19.500Z,25.42
2023-03-22T11:52:18.515Z,25.39
2023-03-22T11:56:19.543Z,25.33
2023-03-22T12:00:18.923Z,25.32
2023-03-22T12:04:18.520Z,25.21
2023-03-22T12:08:18.446Z,25.18
2023-03-22T12:12:18.290Z,25.18
2023-03-22T12:16:18.534Z,25.15
2023-03-22T12:20:18.319Z,25.15
2023-03-22T12:24:18.366Z,25.25
2023-03-22T12:28:18.179Z,25.28
2023-03-22T12:32:18.125Z,25.33
2023-03-22T12:36:18.367Z,25.36
2023-03-22T12:40:18.279Z,25.37
2023-03-22T12:44:18.260Z,25.39
2023-03-22T12:48:18.342Z,25.43
2023-03-22T12:52:18.499Z,25.42
2023-03-22T12:56:18.894Z,25.42
2023-03-22T13:00:18.107Z,25.43
2023-03-22T13:04:18.279Z,25.46
2023-03-22T13:08:18.144Z,25.46
2023-03-22T13:12:18.821Z,25.43
2023-03-22T13:16:18.183Z,25.46
2023-03-22T13:20:18.216Z,25.46
2023-03-22T13:24:18.944Z,25.47
2023-03-22T13:28:18.436Z,25.47
2023-03-22T13:32:22.316Z,25.47
2023-03-22T13:36:18.930Z,25.46
2023-03-22T13:40:18.071Z,25.47
2023-03-22T13:44:17.910Z,25.47
2023-03-22T13:48:17.997Z,25.47
2023-03-22T13:52:18.030Z,25.47
2023-03-22T13:56:18.001Z,25.47
2023-03-22T14:00:20.269Z,25.49
2023-03-22T14:04:18.932Z,25.50
2023-03-22T14:08:17.881Z,25.50
2023-03-22T14:12:17.928Z,25.49
2023-03-22T14:16:17.991Z,25.49
2023-03-22T14:20:17.834Z,25.49
2023-03-22T14:49:20.153Z,25.46
2023-03-22T14:53:20.142Z,25.47
2023-03-22T14:57:28.314Z,25.47
2023-03-22T15:01:21.118Z,25.46
2023-03-22T15:05:20.024Z,25.46
2023-03-22T15:09:19.964Z,25.42
2023-03-22T15:13:19.958Z,25.44
2023-03-22T15:17:19.909Z,25.42
2023-03-22T15:21:19.912Z,25.40
2023-03-22T15:25:19.843Z,25.42
2023-03-22T15:29:19.827Z,25.39
2023-03-22T15:33:19.800Z,25.40
2023-03-22T15:37:24.777Z,25.36
2023-03-22T15:41:20.754Z,25.37
2023-03-22T15:45:19.760Z,25.39
2023-03-22T15:49:19.718Z,25.37
2023-03-22T15:53:20.364Z,25.36
2023-03-22T15:57:19.761Z,25.36
2023-03-22T16:01:19.639Z,25.39
2023-03-22T16:05:19.538Z,25.36
2023-03-22T16:09:19.532Z,25.34
2023-03-22T16:13:19.477Z,25.33
2023-03-22T16:17:19.485Z,25.32
2023-03-22T16:21:20.409Z,25.32
2023-03-22T16:25:19.475Z,25.32
2023-03-22T16:29:19.342Z,25.28
2023-03-22T16:33:19.315Z,25.26
2023-03-22T16:37:19.265Z,25.23
2023-03-22T16:41:19.242Z,25.25
2023-03-22T16:45:19.232Z,25.19
2023-03-22T16:49:19.290Z,25.15
2023-03-22T16:53:19.330Z,25.13
2023-03-22T16:57:19.337Z,25.09
2023-03-22T17:01:19.342Z,25.11
2023-03-22T17:05:19.588Z,25.08
2023-03-22T17:09:19.373Z,25.08
2023-03-22T17:13:19.346Z,25.06
2023-03-22T17:17:20.442Z,25.03
2023-03-22T17:21:19.348Z,25.02
2023-03-22T17:25:20.034Z,25.01
2023-03-22T17:29:19.336Z,24.98
2023-03-22T17:33:19.356Z,24.96
2023-03-22T17:37:19.294Z,24.98
2023-03-22T17:41:19.252Z,24.96
2023-03-22T17:45:19.417Z,24.95
2023-03-22T17:49:19.364Z,24.93
2023-03-22T17:53:46.709Z,24.93
2023-03-22T17:57:44.752Z,24.92
2023-03-22T18:01:20.318Z,24.91
2023-03-22T18:05:24.799Z,24.93
2023-03-22T18:09:20.143Z,24.89
2023-03-22T18:13:19.035Z,24.91
2023-03-22T18:17:19.100Z,24.89
2023-03-22T18:21:19.217Z,24.89
2023-03-22T18:25:18.948Z,24.89
2023-03-22T18:29:18.914Z,24.86
2023-03-22T18:33:19.466Z,24.85
2023-03-22T18:37:19.003Z,24.86
2023-03-22T18:45:21.081Z,24.85
2023-03-22T18:49:18.877Z,24.82
2023-03-22T18:53:18.903Z,24.81
2023-03-22T18:57:25.846Z,24.82
2023-03-22T19:01:19.791Z,24.81
2023-03-22T19:05:18.728Z,24.78
2023-03-22T19:09:18.917Z,24.78
2023-03-22T19:13:18.650Z,24.77
2023-03-22T19:17:18.586Z,24.77
2023-03-22T19:25:18.540Z,24.77
2023-03-22T19:29:18.593Z,24.78
2023-03-22T19:33:34.696Z,24.75
2023-03-22T19:37:19.563Z,24.77
2023-03-22T19:41:45.049Z,24.74
2023-03-22T19:45:19.516Z,24.72
2023-03-22T19:49:18.461Z,24.75
2023-03-22T19:53:54.222Z,24.74
2023-03-22T19:57:19.403Z,24.74
2023-03-22T20:01:18.351Z,24.72
2023-03-22T20:05:18.482Z,24.71
2023-03-22T20:09:18.314Z,24.71
2023-03-22T20:13:18.255Z,24.69
2023-03-22T20:17:25.863Z,24.71
2023-03-22T20:21:19.191Z,24.69
2023-03-22T20:25:18.109Z,24.71
2023-03-22T20:29:18.100Z,24.68
2023-03-22T20:33:18.108Z,24.69
2023-03-22T20:37:18.479Z,24.71
2023-03-22T20:41:18.258Z,24.69
2023-03-22T20:45:18.320Z,24.68
2023-03-22T20:49:18.392Z,24.68
2023-03-22T20:53:18.481Z,24.67
2023-03-22T20:57:19.528Z,24.65
2023-03-22T21:01:18.634Z,24.65
2023-03-22T21:05:18.746Z,24.67
2023-03-22T21:09:18.825Z,24.65
2023-03-22T21:13:18.902Z,24.65
2023-03-22T21:17:18.979Z,24.65
2023-03-22T21:21:18.986Z,24.64
2023-03-22T21:25:19.063Z,24.62
2023-03-22T21:29:19.154Z,24.64
2023-03-22T21:33:19.277Z,24.64
2023-03-22T21:37:19.362Z,24.62
2023-03-22T21:41:19.634Z,24.59
2023-03-22T21:45:19.572Z,24.62
2023-03-22T21:49:20.025Z,24.61
2023-03-22T21:53:19.706Z,24.64
2023-03-22T21:57:19.865Z,24.61
2023-03-22T22:01:19.987Z,24.59
2023-03-22T22:05:20.011Z,24.61
2023-03-22T22:09:20.148Z,24.61
2023-03-22T22:13:20.274Z,24.57
2023-03-22T22:17:20.297Z,24.57
2023-03-22T22:21:20.578Z,24.58
2023-03-22T22:25:20.485Z,24.58
2023-03-22T22:29:20.670Z,24.58
2023-03-22T22:33:20.706Z,24.59
2023-03-22T22:37:20.918Z,24.58
2023-03-22T22:41:20.997Z,24.58
2023-03-22T22:45:22.121Z,24.58
2023-03-22T22:49:21.142Z,24.57
2023-03-22T22:53:21.312Z,24.54
2023-03-22T22:57:21.489Z,24.54
2023-03-22T23:01:21.533Z,24.52
2023-03-22T23:05:21.656Z,24.54
2023-03-22T23:09:21.781Z,24.52
2023-03-22T23:13:21.910Z,24.52
2023-03-22T23:17:22.070Z,24.50
2023-03-22T23:21:22.145Z,24.51
2023-03-22T23:25:22.312Z,24.50
2023-03-22T23:29:22.426Z,24.48
2023-03-22T23:33:22.561Z,24.48
2023-03-22T23:37:22.741Z,24.50
2023-03-22T23:41:22.857Z,24.47
2023-03-22T23:45:22.992Z,24.45
2023-03-22T23:49:23.212Z,24.47
2023-03-22T23:53:23.284Z,24.47
2023-03-22T23:57:23.416Z,24.45
